Time;durP1;ratioP1;P1;durP2;ratioP2;P2;SDS_P1;SDS_P2;PMS_P1;PMS_P2;Temp;Humidity;BMP_temperature;BMP_pressure;BME280_temperature;BME280_humidity;BME280_pressure;Samples;Min_cycle;Max_cycle;Signal;HPM_P1;HPM_P2
2023/09/21 00:00:56;;;;;;;3.50;2.42;;;17.00;1.00;;;;;;5055271;28;20045;-75
2023/09/21 00:03:21;;;;;;;2.83;2.47;;;17.00;1.00;;;;;;5055455;28;20025;-75
2023/09/21 00:05:51;;;;;;;6.35;2.53;;;17.10;1.00;;;;;;5055737;28;20489;-75
2023/09/21 00:08:16;;;;;;;3.83;2.55;;;17.10;1.00;;;;;;5055311;28;20024;-75
2023/09/21 00:10:42;;;;;;;4.05;2.80;;;17.10;1.00;;;;;;5055546;28;20021;-75
2023/09/21 00:13:08;;;;;;;4.95;2.78;;;17.10;1.00;;;;;;5055430;28;20557;-75
2023/09/21 00:15:34;;;;;;;3.72;2.08;;;17.10;1.00;;;;;;5055779;28;20088;-75
2023/09/21 00:18:00;;;;;;;7.28;2.38;;;17.20;1.00;;;;;;5055824;28;20025;-75
2023/09/21 00:20:29;;;;;;;5.88;2.42;;;17.20;1.00;;;;;;5055524;28;20426;-75
2023/09/21 00:22:56;;;;;;;3.75;2.58;;;17.30;1.00;;;;;;5055098;28;20021;-75
2023/09/21 00:25:23;;;;;;;3.15;2.38;;;17.40;1.00;;;;;;5054745;28;20064;-75
2023/09/21 00:27:49;;;;;;;3.97;2.40;;;17.40;1.00;;;;;;5054708;28;20065;-75
2023/09/21 00:30:15;;;;;;;3.47;2.58;;;17.40;1.00;;;;;;5055561;28;20068;-75
2023/09/21 00:32:41;;;;;;;4.95;2.40;;;17.40;1.00;;;;;;5055459;28;20064;-76
2023/09/21 00:35:10;;;;;;;3.58;2.30;;;17.40;1.00;;;;;;5055448;28;20344;-75
2023/09/21 00:37:38;;;;;;;3.90;2.40;;;17.40;1.00;;;;;;5054937;28;20025;-75
2023/09/21 00:40:24;;;;;;;4.38;2.40;;;17.40;1.00;;;;;;5055134;28;20029;-75
2023/09/21 00:42:51;;;;;;;3.03;2.30;;;17.40;1.00;;;;;;5054688;28;20029;-75
2023/09/21 00:45:18;;;;;;;6.38;2.42;;;17.40;1.00;;;;;;5054619;28;20075;-75
2023/09/21 00:47:49;;;;;;;4.60;2.40;;;17.40;1.00;;;;;;5054899;28;20059;-75
2023/09/21 00:50:17;;;;;;;3.70;2.63;;;17.40;1.00;;;;;;5054708;28;20033;-75
2023/09/21 00:52:45;;;;;;;4.75;2.75;;;17.50;1.00;;;;;;5054433;28;20467;-75
2023/09/21 00:55:14;;;;;;;4.63;2.53;;;17.40;1.00;;;;;;5054767;28;20036;-75
2023/09/21 00:57:41;;;;;;;6.63;3.10;;;17.50;1.00;;;;;;5054922;28;20036;-75
2023/09/21 01:00:13;;;;;;;3.47;2.53;;;17.50;1.00;;;;;;5054276;28;20021;-75
2023/09/21 01:02:42;;;;;;;4.03;2.67;;;17.50;1.00;;;;;;5053650;28;20477;-75
2023/09/21 01:05:08;;;;;;;3.95;2.70;;;17.40;1.00;;;;;;5054607;28;20052;-75
2023/09/21 01:07:36;;;;;;;2.42;2.05;;;17.30;1.00;;;;;;5054520;28;20079;-75
2023/09/21 01:10:04;;;;;;;4.65;2.45;;;17.40;1.00;;;;;;5054068;28;20056;-75
2023/09/21 01:12:36;;;;;;;4.65;2.58;;;17.30;1.00;;;;;;5054638;28;20037;-75
2023/09/21 01:15:05;;;;;;;3.63;2.53;;;17.20;1.00;;;;;;5054671;28;20071;-75
2023/09/21 01:17:31;;;;;;;4.20;2.45;;;17.10;1.00;;;;;;5054371;28;20489;-75
2023/09/21 01:19:57;;;;;;;4.38;2.53;;;17.10;1.00;;;;;;5054272;28;20021;-75
2023/09/21 01:22:25;;;;;;;4.97;2.55;;;17.00;1.00;;;;;;5054082;28;20032;-75
2023/09/21 01:24:51;;;;;;;7.60;2.90;;;16.90;1.00;;;;;;5054307;28;20025;-75
2023/09/21 01:27:17;;;;;;;6.53;2.92;;;16.80;1.00;;;;;;5054449;28;20025;-75
2023/09/21 01:29:44;;;;;;;6.05;2.50;;;16.70;1.00;;;;;;5054098;28;20021;-75
2023/09/21 01:32:09;;;;;;;6.15;2.58;;;16.80;1.00;;;;;;5054370;28;20082;-75
2023/09/21 01:34:35;;;;;;;7.32;2.78;;;17.00;1.00;;;;;;5054001;28;20123;-75
2023/09/21 01:37:01;;;;;;;5.88;2.60;;;17.10;1.00;;;;;;5054145;28;20116;-75
2023/09/21 01:39:27;;;;;;;3.63;2.45;;;17.10;1.00;;;;;;5053649;28;20115;-76
2023/09/21 01:41:53;;;;;;;3.15;2.25;;;17.20;1.00;;;;;;5054144;28;20025;-75
2023/09/21 01:44:21;;;;;;;3.70;2.53;;;17.20;1.00;;;;;;5053986;28;20094;-75
2023/09/21 01:46:49;;;;;;;6.25;2.80;;;17.20;1.00;;;;;;5054201;28;20033;-75
2023/09/21 01:49:15;;;;;;;3.45;2.50;;;17.40;1.00;;;;;;5053677;28;20025;-75
2023/09/21 01:51:41;;;;;;;3.65;2.63;;;17.40;1.00;;;;;;5053195;28;20083;-75
2023/09/21 01:54:07;;;;;;;3.15;2.58;;;17.50;1.00;;;;;;5053604;28;20123;-75
2023/09/21 01:56:34;;;;;;;4.38;2.40;;;17.70;1.00;;;;;;5053732;28;20112;-75
2023/09/21 01:59:00;;;;;;;6.85;2.60;;;17.80;1.00;;;;;;5054065;28;20032;-75
2023/09/21 02:01:26;;;;;;;3.53;2.47;;;17.80;1.00;;;;;;5053345;28;20049;-75
2023/09/21 02:03:55;;;;;;;5.20;2.33;;;17.90;1.00;;;;;;5053181;28;20074;-75
2023/09/21 02:06:21;;;;;;;4.70;2.65;;;17.90;1.00;;;;;;5053582;28;20033;-75
2023/09/21 02:08:46;;;;;;;2.83;1.90;;;17.80;1.00;;;;;;5053805;28;20379;-75
2023/09/21 02:11:12;;;;;;;3.17;2.20;;;17.90;1.00;;;;;;5053685;28;20490;-75
2023/09/21 02:13:38;;;;;;;3.30;2.30;;;17.90;1.00;;;;;;5053415;28;20475;-75
2023/09/21 02:16:03;;;;;;;2.72;2.20;;;17.90;1.00;;;;;;5053987;28;20036;-75
2023/09/21 02:18:30;;;;;;;7.70;2.33;;;17.80;1.00;;;;;;5053699;28;20463;-75
2023/09/21 02:20:55;;;;;;;5.15;2.40;;;17.80;1.00;;;;;;5053806;28;20025;-75
2023/09/21 02:23:22;;;;;;;4.55;2.10;;;17.70;1.00;;;;;;5052931;28;20078;-75
2023/09/21 02:25:47;;;;;;;2.85;2.15;;;17.70;1.00;;;;;;5053853;28;20426;-76
2023/09/21 02:28:13;;;;;;;3.13;2.40;;;17.80;1.00;;;;;;5052601;28;20071;-75
2023/09/21 02:30:42;;;;;;;2.88;1.98;;;17.70;1.00;;;;;;5053141;28;20025;-75
2023/09/21 02:33:09;;;;;;;6.20;3.08;;;17.70;1.00;;;;;;5052886;28;20089;-75
2023/09/21 02:35:41;;;;;;;5.75;2.45;;;17.70;1.00;;;;;;5053484;28;20025;-75
2023/09/21 02:38:08;;;;;;;4.00;2.22;;;17.60;1.00;;;;;;5053207;28;20378;-75
2023/09/21 02:40:33;;;;;;;3.97;2.33;;;17.70;1.00;;;;;;5053472;28;20478;-75
2023/09/21 02:42:59;;;;;;;4.95;2.42;;;17.70;1.00;;;;;;5053020;28;20032;-75
2023/09/21 02:45:25;;;;;;;4.18;2.53;;;17.60;1.00;;;;;;5052965;28;20056;-75
2023/09/21 02:47:54;;;;;;;3.47;2.03;;;17.60;1.00;;;;;;5053169;28;20025;-75
2023/09/21 02:50:22;;;;;;;3.45;2.33;;;17.50;1.00;;;;;;5056988;28;20108;-75
2023/09/21 02:52:54;;;;;;;3.33;2.63;;;17.40;1.00;;;;;;5056976;28;20032;-75
2023/09/21 02:55:21;;;;;;;4.40;2.38;;;17.50;1.00;;;;;;5057362;28;20106;-75
2023/09/21 02:57:54;;;;;;;4.07;2.60;;;17.50;1.00;;;;;;5057249;28;20025;-75
2023/09/21 03:00:27;;;;;;;4.53;2.88;;;17.50;1.00;;;;;;5057340;28;20103;-75
2023/09/21 03:02:55;;;;;;;3.47;2.10;;;17.60;1.00;;;;;;5055958;28;20388;-75
2023/09/21 03:05:23;;;;;;;4.72;2.40;;;17.60;1.00;;;;;;5056655;28;20064;-75
2023/09/21 03:07:48;;;;;;;5.55;2.58;;;17.60;1.00;;;;;;5056829;28;20036;-75
2023/09/21 03:10:16;;;;;;;10.52;2.97;;;17.60;1.00;;;;;;5057109;28;20033;-75
2023/09/21 03:12:42;;;;;;;8.75;3.17;;;17.60;1.00;;;;;;5056801;28;20028;-75
2023/09/21 03:15:13;;;;;;;9.73;2.60;;;17.60;1.00;;;;;;5056382;28;20033;-75
2023/09/21 03:17:40;;;;;;;3.42;2.70;;;17.50;1.00;;;;;;5056827;28;20044;-75
2023/09/21 03:20:10;;;;;;;3.72;2.53;;;17.60;1.00;;;;;;5056892;28;20459;-75
2023/09/21 03:22:37;;;;;;;4.03;2.15;;;17.60;99.90;;;;;;5056208;28;20028;-75
2023/09/21 03:25:03;;;;;;;4.40;2.35;;;17.70;99.90;;;;;;5056340;28;20021;-75
2023/09/21 03:27:29;;;;;;;6.70;2.40;;;17.70;99.90;;;;;;5055541;28;20219;-76
2023/09/21 03:29:55;;;;;;;4.88;2.33;;;17.60;99.90;;;;;;5055838;28;20119;-75
2023/09/21 03:32:20;;;;;;;4.40;2.20;;;17.50;1.00;;;;;;5056077;28;20025;-75
2023/09/21 03:34:46;;;;;;;4.45;2.38;;;17.40;1.00;;;;;;5056176;28;20033;-75
2023/09/21 03:37:13;;;;;;;6.10;2.50;;;17.30;1.00;;;;;;5055882;28;20061;-75
2023/09/21 03:39:39;;;;;;;4.60;2.33;;;17.30;1.00;;;;;;5056169;28;20123;-75
2023/09/21 03:42:05;;;;;;;2.80;2.33;;;17.20;1.00;;;;;;5056067;28;20072;-75
2023/09/21 03:44:31;;;;;;;3.22;2.58;;;17.20;1.00;;;;;;5056044;28;20021;-75
2023/09/21 03:46:57;;;;;;;4.07;2.28;;;17.10;1.00;;;;;;5055732;28;20075;-75
2023/09/21 03:49:23;;;;;;;3.97;2.33;;;17.10;1.00;;;;;;5055711;28;20425;-75
2023/09/21 03:51:48;;;;;;;4.07;2.38;;;17.10;1.00;;;;;;5056052;28;20037;-75
2023/09/21 03:54:15;;;;;;;3.85;2.47;;;17.20;1.00;;;;;;5055926;28;20554;-75
2023/09/21 03:56:41;;;;;;;4.05;2.85;;;17.10;1.00;;;;;;5056240;28;20029;-75
2023/09/21 03:59:07;;;;;;;5.68;2.42;;;17.20;1.00;;;;;;5055074;28;20020;-75
2023/09/21 04:01:34;;;;;;;3.70;2.40;;;17.10;1.00;;;;;;5054616;28;20403;-75
2023/09/21 04:04:05;;;;;;;3.95;2.20;;;17.10;1.00;;;;;;5055756;28;20111;-75
2023/09/21 04:06:32;;;;;;;3.85;2.40;;;17.10;1.00;;;;;;5055869;28;20059;-75
2023/09/21 04:08:59;;;;;;;4.55;2.20;;;17.10;1.00;;;;;;5055478;28;20072;-75
2023/09/21 04:11:28;;;;;;;4.20;2.40;;;17.10;1.00;;;;;;5055635;28;20406;-75
2023/09/21 04:13:53;;;;;;;3.63;2.42;;;17.00;1.00;;;;;;5055916;28;20028;-75
2023/09/21 04:16:19;;;;;;;4.20;2.67;;;17.10;1.00;;;;;;5055545;28;20040;-78
2023/09/21 04:18:44;;;;;;;5.80;3.15;;;17.10;1.00;;;;;;5055574;28;20059;-75
2023/09/21 04:21:10;;;;;;;5.47;2.78;;;17.10;1.00;;;;;;5055416;28;20387;-75
2023/09/21 04:23:35;;;;;;;6.03;2.63;;;17.10;1.00;;;;;;5055186;28;20031;-75
2023/09/21 04:26:01;;;;;;;6.85;2.70;;;17.30;99.90;;;;;;5055275;28;20021;-75
2023/09/21 04:28:26;;;;;;;8.57;2.45;;;17.40;99.90;;;;;;5055625;28;20033;-75
2023/09/21 04:30:52;;;;;;;2.95;2.20;;;17.40;99.90;;;;;;5055183;28;20075;-74
2023/09/21 04:33:17;;;;;;;3.40;2.30;;;17.40;99.90;;;;;;5055554;28;20032;-75
2023/09/21 04:35:43;;;;;;;3.10;2.42;;;17.50;99.90;;;;;;5054559;28;20029;-74
2023/09/21 04:38:09;;;;;;;3.45;2.10;;;17.50;99.90;;;;;;5054987;28;20116;-75
2023/09/21 04:40:34;;;;;;;5.72;2.53;;;17.50;99.90;;;;;;5055327;28;20112;-75
2023/09/21 04:43:00;;;;;;;5.65;2.30;;;17.50;99.90;;;;;;5054859;28;20028;-75
2023/09/21 04:45:26;;;;;;;5.65;2.80;;;17.50;99.90;;;;;;5055007;28;20032;-75
2023/09/21 04:48:00;;;;;;;7.15;2.45;;;17.70;99.90;;;;;;5055146;28;20021;-75
2023/09/21 04:50:26;;;;;;;2.88;2.15;;;17.80;99.90;;;;;;5054590;28;20060;-75
2023/09/21 04:52:51;;;;;;;3.45;2.50;;;17.90;99.90;;;;;;5054731;28;20035;-75
2023/09/21 04:55:18;;;;;;;3.38;2.40;;;17.80;1.00;;;;;;5054732;28;20040;-75
2023/09/21 04:57:44;;;;;;;4.43;2.42;;;17.80;9.00;;;;;;5054353;28;20382;-74
2023/09/21 05:00:13;;;;;;;6.20;2.40;;;17.80;99.90;;;;;;5054766;28;20127;-75
2023/09/21 05:02:39;;;;;;;4.65;2.70;;;17.80;1.00;;;;;;5053827;28;20102;-78
2023/09/21 05:05:05;;;;;;;4.55;2.25;;;17.80;99.90;;;;;;5054965;28;20418;-74
2023/09/21 05:07:31;;;;;;;4.00;2.25;;;17.80;99.90;;;;;;5054523;28;20108;-75
2023/09/21 05:09:56;;;;;;;3.70;2.28;;;17.80;47.70;;;;;;5054703;28;20446;-75
2023/09/21 05:12:22;;;;;;;3.63;2.40;;;17.80;1.00;;;;;;5054236;28;20115;-74
2023/09/21 05:14:50;;;;;;;4.97;2.30;;;17.90;1.00;;;;;;5054729;28;20037;-74
2023/09/21 05:17:16;;;;;;;3.95;2.28;;;17.90;1.00;;;;;;5054709;28;20025;-75
2023/09/21 05:19:42;;;;;;;7.50;2.55;;;17.90;1.00;;;;;;5054234;28;20036;-75
2023/09/21 05:22:09;;;;;;;3.53;2.20;;;17.90;1.00;;;;;;5054712;28;20033;-75
2023/09/21 05:24:36;;;;;;;3.45;2.13;;;17.90;1.00;;;;;;5054488;28;20017;-75
2023/09/21 05:27:02;;;;;;;2.85;2.10;;;17.90;1.00;;;;;;5054913;28;20024;-75
2023/09/21 05:29:28;;;;;;;4.85;2.85;;;17.90;1.00;;;;;;5054957;28;20036;-74
2023/09/21 05:31:54;;;;;;;5.07;2.47;;;17.90;1.00;;;;;;5055049;28;20029;-75
2023/09/21 05:34:20;;;;;;;5.88;2.70;;;18.00;1.00;;;;;;5054883;28;20028;-74
2023/09/21 05:36:47;;;;;;;4.43;2.45;;;18.00;99.90;;;;;;5054582;28;20379;-75
2023/09/21 05:39:17;;;;;;;4.80;2.40;;;18.00;99.90;;;;;;5054219;28;20390;-75
2023/09/21 05:41:44;;;;;;;8.27;2.38;;;18.10;99.90;;;;;;5054141;28;20429;-75
2023/09/21 05:44:09;;;;;;;8.15;2.63;;;18.10;99.90;;;;;;5054520;28;20383;-75
2023/09/21 05:46:35;;;;;;;8.40;3.30;;;18.10;99.90;;;;;;5054634;28;20021;-74
2023/09/21 05:49:03;;;;;;;6.38;2.78;;;18.20;99.90;;;;;;5054717;28;20103;-75
2023/09/21 05:51:29;;;;;;;7.35;2.75;;;18.20;99.90;;;;;;5053494;28;20033;-75
2023/09/21 05:53:54;;;;;;;4.55;2.50;;;18.20;99.90;;;;;;5054309;28;20540;-75
2023/09/21 05:56:20;;;;;;;5.30;2.58;;;18.30;99.90;;;;;;5054497;28;20024;-75
2023/09/21 05:58:46;;;;;;;4.75;2.45;;;18.40;99.90;;;;;;5054448;28;20079;-75
2023/09/21 06:01:13;;;;;;;4.70;2.67;;;18.40;99.90;;;;;;5053891;28;20502;-75
2023/09/21 06:03:39;;;;;;;3.95;2.35;;;18.50;76.80;;;;;;5053866;28;20180;-75
2023/09/21 06:06:07;;;;;;;4.68;2.38;;;18.60;1.00;;;;;;5053990;28;20473;-74
2023/09/21 06:08:36;;;;;;;6.43;2.55;;;18.70;1.00;;;;;;5053110;28;20029;-75
2023/09/21 06:11:02;;;;;;;3.00;2.33;;;18.80;1.00;;;;;;5054202;28;20025;-75
2023/09/21 06:13:28;;;;;;;4.82;2.47;;;18.90;99.90;;;;;;5053556;28;20021;-76
2023/09/21 06:15:54;;;;;;;11.45;2.70;;;19.10;99.90;;;;;;5053637;28;20029;-75
2023/09/21 06:18:19;;;;;;;3.83;2.78;;;19.40;69.20;;;;;;5053825;28;20374;-76
2023/09/21 06:20:45;;;;;;;5.20;2.70;;;19.70;1.00;;;;;;5053060;28;20021;-75
2023/09/21 06:23:11;;;;;;;3.78;2.10;;;19.80;1.00;;;;;;5041945;28;20029;-75
2023/09/21 06:25:37;;;;;;;4.22;2.70;;;20.30;99.90;;;;;;5040022;28;20029;-76
2023/09/21 06:28:03;;;;;;;4.00;2.72;;;21.20;1.00;;;;;;5054715;28;20075;-76
2023/09/21 06:30:29;;;;;;;6.10;2.63;;;22.60;1.00;;;;;;5048676;28;20390;-76
2023/09/21 06:32:55;;;;;;;5.32;2.10;;;23.50;99.90;;;;;;5029531;28;20026;-76
2023/09/21 06:35:23;;;;;;;4.82;2.50;;;24.20;66.80;;;;;;5035151;28;20423;-76
2023/09/21 06:37:54;;;;;;;5.65;2.50;;;24.70;1.00;;;;;;5026363;28;20124;-76
2023/09/21 06:40:21;;;;;;;3.40;2.08;;;25.30;1.00;;;;;;5027310;28;20029;-77
2023/09/21 06:42:46;;;;;;;2.85;2.30;;;25.20;99.90;;;;;;5028891;28;20041;-75
2023/09/21 06:45:12;;;;;;;5.78;1.98;;;25.50;99.90;;;;;;5029615;28;20533;-76
2023/09/21 06:47:38;;;;;;;3.90;1.95;;;25.50;99.90;;;;;;5032637;28;20030;-65
2023/09/21 06:50:07;;;;;;;3.45;2.47;;;25.00;99.90;;;;;;5035537;28;20166;-65
2023/09/21 06:52:32;;;;;;;5.80;2.50;;;24.90;99.90;;;;;;5035672;28;20029;-64
2023/09/21 06:55:00;;;;;;;5.82;2.00;;;25.00;99.90;;;;;;5032761;28;20487;-64
2023/09/21 06:57:26;;;;;;;4.50;1.92;;;25.10;99.90;;;;;;5026676;28;20503;-64
2023/09/21 06:59:52;;;;;;;3.58;2.20;;;25.30;99.90;;;;;;5029711;28;20499;-64
2023/09/21 07:02:18;;;;;;;3.58;2.08;;;25.50;99.90;;;;;;5034336;28;20045;-64
2023/09/21 07:04:43;;;;;;;3.92;2.10;;;26.20;99.90;;;;;;5032872;28;20052;-64
2023/09/21 07:07:09;;;;;;;4.82;2.00;;;25.90;99.90;;;;;;5030007;28;20108;-66
2023/09/21 07:09:36;;;;;;;3.58;2.03;;;26.00;99.90;;;;;;5020862;28;20047;-65
2023/09/21 07:12:02;;;;;;;5.13;2.35;;;26.10;99.90;;;;;;5034537;28;20025;-66
2023/09/21 07:14:28;;;;;;;3.50;2.10;;;26.50;99.90;;;;;;5037971;28;20482;-65
2023/09/21 07:16:55;;;;;;;2.55;2.30;;;26.30;99.90;;;;;;5056299;28;20021;-66
2023/09/21 07:19:20;;;;;;;7.00;2.35;;;26.10;99.90;;;;;;5027952;28;20554;-66
2023/09/21 07:21:46;;;;;;;4.80;2.70;;;25.40;99.90;;;;;;5014177;28;20114;-65
2023/09/21 07:24:11;;;;;;;4.55;2.10;;;25.80;99.90;;;;;;5022308;28;20087;-64
2023/09/21 07:26:37;;;;;;;7.00;2.53;;;26.20;99.90;;;;;;5013517;28;20087;-72
2023/09/21 07:29:05;;;;;;;5.47;2.15;;;26.00;99.90;;;;;;5018655;28;20029;-64
2023/09/21 07:31:33;;;;;;;5.63;2.40;;;25.10;99.90;;;;;;5034977;28;20029;-64
2023/09/21 07:33:59;;;;;;;4.40;2.17;;;24.80;99.90;;;;;;5033856;28;20435;-74
2023/09/21 07:36:24;;;;;;;3.53;2.33;;;24.60;99.90;;;;;;5027280;28;20121;-74
2023/09/21 07:38:53;;;;;;;7.68;2.65;;;25.40;99.90;;;;;;5015076;28;20116;-74
2023/09/21 07:41:19;;;;;;;3.70;2.10;;;25.90;99.90;;;;;;5020332;28;20036;-75
2023/09/21 07:43:45;;;;;;;6.22;2.15;;;26.60;99.90;;;;;;5021102;28;20022;-74
2023/09/21 07:46:11;;;;;;;4.43;2.50;;;26.70;99.90;;;;;;5013788;28;20025;-75
2023/09/21 07:48:36;;;;;;;3.25;2.42;;;26.50;99.90;;;;;;5011009;28;20029;-75
2023/09/21 07:51:06;;;;;;;4.70;2.50;;;26.60;99.90;;;;;;5017609;28;20025;-76
2023/09/21 07:53:32;;;;;;;2.58;2.08;;;27.30;99.90;;;;;;5026083;28;20021;-75
2023/09/21 07:55:59;;;;;;;5.20;2.13;;;27.10;99.90;;;;;;5020525;28;20026;-75
2023/09/21 07:58:25;;;;;;;4.25;2.20;;;26.90;99.90;;;;;;5014907;28;20046;-75
2023/09/21 08:00:54;;;;;;;7.20;2.28;;;27.30;99.90;;;;;;5012570;28;20544;-75
2023/09/21 08:03:19;;;;;;;6.30;2.45;;;27.20;99.90;;;;;;5016111;28;20391;-75
2023/09/21 08:05:45;;;;;;;4.28;2.28;;;26.40;99.90;;;;;;5018876;28;20029;-77
2023/09/21 08:08:10;;;;;;;5.03;2.42;;;26.70;99.90;;;;;;5015191;28;20487;-76
2023/09/21 08:10:36;;;;;;;4.72;2.33;;;26.90;99.90;;;;;;5014744;28;20025;-75
2023/09/21 08:13:02;;;;;;;5.70;2.47;;;26.90;99.90;;;;;;5030870;28;20029;-76
2023/09/21 08:15:27;;;;;;;3.15;2.10;;;26.30;99.90;;;;;;5035581;28;20040;-76
2023/09/21 08:17:53;;;;;;;4.40;2.30;;;25.80;99.90;;;;;;5016794;28;20373;-76
2023/09/21 08:20:22;;;;;;;5.97;2.67;;;25.30;99.90;;;;;;5014890;28;20034;-76
2023/09/21 08:22:49;;;;;;;5.45;2.55;;;25.10;99.90;;;;;;5020911;28;20049;-75
2023/09/21 08:25:15;;;;;;;3.83;2.35;;;24.30;99.90;;;;;;5034740;28;20032;-76
2023/09/21 08:27:40;;;;;;;6.88;2.53;;;23.80;1.00;;;;;;5024694;28;20117;-76
2023/09/21 08:30:09;;;;;;;5.78;2.53;;;24.40;1.00;;;;;;5024424;28;20030;-76
2023/09/21 08:32:34;;;;;;;4.93;1.88;;;25.50;1.00;;;;;;5025278;28;20330;-76
2023/09/21 08:35:00;;;;;;;5.25;2.28;;;26.00;1.00;;;;;;5031688;28;20129;-76
2023/09/21 08:37:26;;;;;;;3.75;2.22;;;27.10;1.00;;;;;;5034523;28;20463;-76
2023/09/21 08:39:51;;;;;;;2.70;2.10;;;27.60;99.90;;;;;;5046863;28;20112;-76
2023/09/21 08:42:17;;;;;;;6.07;2.50;;;26.90;99.90;;;;;;5023771;28;20439;-77
2023/09/21 08:44:44;;;;;;;7.68;2.28;;;26.20;99.90;;;;;;5024311;28;20033;-77
2023/09/21 08:47:14;;;;;;;5.22;2.63;;;25.20;99.90;;;;;;5030438;28;20029;-75
2023/09/21 08:49:45;;;;;;;3.75;2.47;;;24.40;99.90;;;;;;5026017;28;20388;-77
2023/09/21 08:52:12;;;;;;;5.40;2.60;;;24.20;1.00;;;;;;5020169;28;20439;-76
2023/09/21 08:54:40;;;;;;;4.00;2.28;;;23.70;45.20;;;;;;5014976;28;20061;-76
2023/09/21 08:57:11;;;;;;;4.95;2.35;;;23.70;99.90;;;;;;5012802;28;20164;-76
2023/09/21 08:59:41;;;;;;;7.35;2.63;;;23.90;99.90;;;;;;5014145;28;20040;-75
2023/09/21 09:02:10;;;;;;;5.03;2.58;;;24.10;99.90;;;;;;5033403;28;20124;-78
2023/09/21 09:04:36;;;;;;;4.63;2.13;;;24.20;83.40;;;;;;5031495;28;20028;-76
2023/09/21 09:07:02;;;;;;;6.88;2.63;;;24.20;68.40;;;;;;5030765;28;20146;-76
2023/09/21 09:09:28;;;;;;;4.45;2.45;;;24.80;65.80;;;;;;5013840;28;20026;-75
2023/09/21 09:11:53;;;;;;;3.60;2.25;;;24.80;32.50;;;;;;5018179;28;20025;-75
2023/09/21 09:14:20;;;;;;;4.90;2.28;;;24.80;25.50;;;;;;5021065;28;20365;-76
2023/09/21 09:16:46;;;;;;;5.82;2.33;;;24.80;28.30;;;;;;5023546;28;20094;-76
2023/09/21 09:19:13;;;;;;;4.00;2.20;;;24.60;67.10;;;;;;5021655;28;20112;-75
2023/09/21 09:21:41;;;;;;;4.80;2.30;;;24.80;65.30;;;;;;5026225;28;20033;-76
2023/09/21 09:24:08;;;;;;;5.00;2.10;;;24.70;91.30;;;;;;5032866;28;20071;-76
2023/09/21 09:26:35;;;;;;;3.92;2.25;;;24.90;90.90;;;;;;5025896;28;20507;-76
2023/09/21 09:29:04;;;;;;;11.50;2.30;;;24.80;62.30;;;;;;5019026;28;20030;-76
2023/09/21 09:31:30;;;;;;;4.38;2.35;;;24.50;42.60;;;;;;5025589;28;20036;-76
2023/09/21 09:33:57;;;;;;;2.20;1.98;;;24.20;69.90;;;;;;5032426;28;20041;-75
2023/09/21 09:36:24;;;;;;;5.25;2.38;;;23.80;99.90;;;;;;5028798;28;20482;-76
2023/09/21 09:38:50;;;;;;;6.43;2.42;;;23.80;99.90;;;;;;5026415;28;20048;-75
2023/09/21 09:41:18;;;;;;;5.78;2.33;;;23.70;99.90;;;;;;5025872;28;20395;-75
2023/09/21 09:43:50;;;;;;;5.10;2.17;;;23.70;99.90;;;;;;5023247;28;20109;-75
2023/09/21 09:46:19;;;;;;;6.82;2.28;;;23.70;99.90;;;;;;5029589;28;20033;-75
2023/09/21 09:48:47;;;;;;;2.90;2.13;;;23.70;99.90;;;;;;5027382;28;20033;-75
2023/09/21 09:51:16;;;;;;;5.35;2.28;;;23.90;99.90;;;;;;5022455;28;20030;-75
2023/09/21 09:53:42;;;;;;;3.33;2.15;;;24.10;99.90;;;;;;5019407;28;20029;-75
2023/09/21 09:56:10;;;;;;;4.82;2.42;;;24.40;92.90;;;;;;5023379;28;20038;-76
2023/09/21 09:58:41;;;;;;;5.03;2.25;;;24.80;97.90;;;;;;5013828;28;20029;-76
2023/09/21 10:01:09;;;;;;;3.65;2.38;;;24.70;85.60;;;;;;5018480;28;20104;-76
2023/09/21 10:03:38;;;;;;;4.40;2.75;;;25.00;99.20;;;;;;5028704;28;20032;-75
2023/09/21 10:06:05;;;;;;;4.60;1.85;;;25.60;66.10;;;;;;5018743;28;20017;-75
2023/09/21 10:08:32;;;;;;;2.90;2.00;;;26.00;1.00;;;;;;5022086;28;20040;-76
2023/09/21 10:11:01;;;;;;;4.95;2.35;;;26.30;1.00;;;;;;5027618;28;20103;-75
2023/09/21 10:13:28;;;;;;;3.47;2.05;;;25.80;1.00;;;;;;5014951;28;20076;-75
2023/09/21 10:16:13;;;;;;;4.68;2.00;;;25.70;1.00;;;;;;5017682;28;20017;-75
2023/09/21 10:18:40;;;;;;;3.55;2.30;;;25.30;1.00;;;;;;5024484;28;20022;-75
2023/09/21 10:21:23;;;;;;;6.45;2.15;;;25.00;1.00;;;;;;5016935;28;20033;-75
2023/09/21 10:26:50;;;;;;;4.25;1.70;;;24.90;1.00;;;;;;5097743;27;20976;-75
2023/09/21 10:29:19;;;;;;;6.60;1.90;;;24.70;1.00;;;;;;5082241;28;20028;-75
2023/09/21 10:31:54;;;;;;;3.13;1.88;;;24.50;1.00;;;;;;5096617;28;20122;-75
2023/09/21 10:34:21;;;;;;;5.32;1.85;;;24.50;1.00;;;;;;5094209;28;20027;-74
2023/09/21 10:36:50;;;;;;;5.95;1.98;;;24.80;1.00;;;;;;5090139;28;20028;-75
2023/09/21 10:39:26;;;;;;;5.05;1.88;;;24.70;1.00;;;;;;5081366;28;20074;-75
2023/09/21 10:41:53;;;;;;;2.47;1.73;;;24.60;1.00;;;;;;5081925;28;20053;-75
2023/09/21 10:45:00;;;;;;;7.03;2.80;;;25.40;40.10;;;;;;5076210;28;20052;-75
2023/09/21 10:47:29;;;;;;;4.32;2.00;;;25.40;1.00;;;;;;5076937;28;20024;-76
2023/09/21 10:50:00;;;;;;;5.47;1.90;;;25.00;1.00;;;;;;5090536;28;20529;-77
2023/09/21 10:52:27;;;;;;;6.45;1.95;;;24.80;1.00;;;;;;5086331;28;20387;-77
2023/09/21 10:54:55;;;;;;;6.13;2.13;;;24.90;1.00;;;;;;5080346;28;20032;-75
2023/09/21 10:57:24;;;;;;;6.15;2.08;;;24.80;1.00;;;;;;5086610;28;20025;-76
2023/09/21 10:59:51;;;;;;;2.70;1.70;;;24.70;1.00;;;;;;5089670;28;20086;-76
2023/09/21 11:02:16;;;;;;;3.88;2.00;;;24.40;1.00;;;;;;5080538;28;20472;-75
2023/09/21 11:04:42;;;;;;;3.42;2.08;;;24.10;1.00;;;;;;5070576;28;20029;-75
2023/09/21 11:07:12;;;;;;;4.90;2.10;;;24.30;17.50;;;;;;5073477;28;20024;-75
2023/09/21 11:09:38;;;;;;;3.85;2.25;;;24.50;10.40;;;;;;5089549;28;20040;-76
2023/09/21 11:12:06;;;;;;;3.65;2.33;;;24.50;17.60;;;;;;5087787;28;20061;-75
2023/09/21 11:14:31;;;;;;;5.03;1.67;;;24.50;4.90;;;;;;5088647;28;20032;-75
2023/09/21 11:16:57;;;;;;;4.22;1.90;;;24.70;9.80;;;;;;5088844;28;20478;-76
2023/09/21 11:19:22;;;;;;;6.13;2.05;;;24.50;4.30;;;;;;5089592;28;20028;-77
2023/09/21 11:21:49;;;;;;;3.33;2.10;;;24.30;1.00;;;;;;5085165;28;20572;-75
2023/09/21 11:24:15;;;;;;;7.25;2.58;;;24.30;10.30;;;;;;5079382;28;20119;-75
2023/09/21 11:26:54;;;;;;;5.50;2.33;;;24.20;19.00;;;;;;5087088;28;20046;-75
2023/09/21 11:29:20;;;;;;;3.78;1.98;;;24.50;69.10;;;;;;5085055;28;20405;-75
2023/09/21 11:31:49;;;;;;;2.60;1.85;;;24.60;1.00;;;;;;5075946;28;20675;-75
2023/09/21 11:34:16;;;;;;;5.57;2.22;;;24.40;14.00;;;;;;5073539;28;20409;-75
2023/09/21 11:36:42;;;;;;;4.13;2.05;;;24.20;6.60;;;;;;5071162;28;20040;-75
2023/09/21 11:39:11;;;;;;;5.82;2.20;;;24.00;23.40;;;;;;5055828;28;20107;-75
2023/09/21 11:41:37;;;;;;;2.22;2.00;;;24.10;49.60;;;;;;5056624;28;20041;-75
2023/09/21 11:44:04;;;;;;;7.90;3.65;;;24.00;53.70;;;;;;5072075;28;20029;-74
2023/09/21 11:46:30;;;;;;;5.43;3.03;;;24.10;94.00;;;;;;5074380;28;20063;-75
2023/09/21 11:48:57;;;;;;;2.63;2.00;;;24.20;70.00;;;;;;5061402;28;20379;-75
2023/09/21 11:51:26;;;;;;;3.45;2.13;;;24.50;62.70;;;;;;5070900;28;20497;-75
2023/09/21 11:53:52;;;;;;;4.18;2.15;;;24.50;72.00;;;;;;5064011;28;20456;-74
2023/09/21 11:56:18;;;;;;;3.88;1.88;;;24.30;69.20;;;;;;5070837;28;20116;-75
2023/09/21 11:58:43;;;;;;;2.17;1.65;;;24.60;99.90;;;;;;5075940;28;20028;-75
2023/09/21 12:03:37;;;;;;;3.10;2.10;;;24.70;69.80;;;;;;5066220;28;20092;-74
2023/09/21 12:06:05;;;;;;;4.88;2.00;;;24.40;56.20;;;;;;5073774;28;20379;-75
2023/09/21 12:08:31;;;;;;;6.00;2.20;;;24.60;99.90;;;;;;5062256;28;20021;-76
2023/09/21 12:10:57;;;;;;;4.05;1.80;;;24.60;64.60;;;;;;5067402;28;20031;-74
2023/09/21 12:13:23;;;;;;;2.50;1.90;;;24.60;74.80;;;;;;5074866;28;20036;-75
2023/09/21 12:15:55;;;;;;;2.72;1.80;;;24.40;41.50;;;;;;5069163;28;20059;-75
2023/09/21 12:18:21;;;;;;;3.17;1.98;;;24.20;57.00;;;;;;5054407;28;20128;-75
2023/09/21 12:20:49;;;;;;;3.83;2.10;;;24.10;54.70;;;;;;5067967;28;20120;-75
2023/09/21 12:23:15;;;;;;;4.10;2.13;;;24.10;71.00;;;;;;5067922;28;20024;-74
2023/09/21 12:25:41;;;;;;;3.20;1.80;;;24.30;94.60;;;;;;5070726;28;20490;-75
2023/09/21 12:28:09;;;;;;;3.90;1.95;;;24.50;54.60;;;;;;5066903;28;20028;-75
2023/09/21 12:30:34;;;;;;;4.60;2.30;;;24.70;94.00;;;;;;5065019;28;20025;-75
2023/09/21 12:33:02;;;;;;;4.18;2.55;;;24.90;75.00;;;;;;5053938;28;20382;-75
2023/09/21 12:35:30;;;;;;;2.85;2.30;;;25.00;29.70;;;;;;5054890;28;20025;-75
2023/09/21 12:37:56;;;;;;;3.20;1.92;;;24.80;47.60;;;;;;5055487;28;20383;-75
2023/09/21 12:40:22;;;;;;;5.63;3.53;;;24.60;75.00;;;;;;5056114;28;20033;-75
2023/09/21 12:42:47;;;;;;;3.10;2.10;;;24.40;68.10;;;;;;5072977;28;20025;-74
2023/09/21 12:45:15;;;;;;;3.15;1.92;;;24.30;48.40;;;;;;5070832;28;20036;-75
2023/09/21 12:47:41;;;;;;;6.75;2.38;;;24.40;86.90;;;;;;5069439;28;20182;-75
2023/09/21 12:50:08;;;;;;;6.40;2.90;;;24.40;99.90;;;;;;5068571;28;20084;-75
2023/09/21 12:52:35;;;;;;;4.78;3.25;;;24.50;99.90;;;;;;5059020;28;20023;-75
2023/09/21 12:55:05;;;;;;;5.30;2.47;;;24.40;77.30;;;;;;5066793;28;20064;-75
2023/09/21 12:57:35;;;;;;;7.00;2.10;;;24.20;85.90;;;;;;5070177;28;20037;-75